Aviation Digital Data Service (ADDS)

Output produced by TAFs form (1308 UTC 11 December 2017)
found at http://www.aviationweather.gov/adds/tafs/
 
KTYS 111253Z 00000KT 10SM CLR M01/M03 A3015 RMK AO2 SLP215 T10111028
KTYS 111120Z 1112/1212 VRB04KT P6SM SKC 
     FM111700 22010KT P6SM FEW250 
     FM120100 22011KT P6SM BKN200 
     FM120900 26010KT P6SM BKN035